Mariner Of The Seas — C6FV9 — position and weather

sailwx.info

Track history (hours):
 
Tides and Currents Weather Stations Pressure Air Temp Water Temp Dewpoint Dewpoint Depression Visibility Wind Speed Wind Dir Waves Ship Positions

Mariner Of The Seas

Operator: Royal Caribbean Cruises Ltd

Last reported at 2018-Jun-25 00:30 UTC. Time now 2018-Jun-25 00:40 UTC.
Position N 25°47' W 080°11'.

Type: Passenger vessel. MMSI: 311493000.

Date/timePositionNaut miles runAvg speedWind from/ knotsBaromVisibWave heightAir tempDewpointWater temp
2018-Jun-25 00:30N 25°47' W 080°11'0 0.0
2018-Jun-25 00:00N 25°47' W 080°11'0 0.0
2018-Jun-24 23:27N 25°47' W 080°11'0 0.0
2018-Jun-24 23:00N 25°47' W 080°11'0 0.0
2018-Jun-24 22:27N 25°47' W 080°11'0 0.0
2018-Jun-24 21:54N 25°47' W 080°11'0 0.0
2018-Jun-24 21:30N 25°47' W 080°11'0 0.0
2018-Jun-24 20:57N 25°47' W 080°11'0 0.0
2018-Jun-24 20:30N 25°47' W 080°11'0 0.0
2018-Jun-24 20:00N 25°47' W 080°11'0 0.0
2018-Jun-24 19:30N 25°47' W 080°11'0 0.0
2018-Jun-24 18:57N 25°47' W 080°11'0 0.0
2018-Jun-24 18:27N 25°47' W 080°11'0 0.0
2018-Jun-24 18:00N 25°47' W 080°11'0 0.0
2018-Jun-24 17:30N 25°47' W 080°11'0 0.0
2018-Jun-24 17:00N 25°47' W 080°11'0 0.0
2018-Jun-24 16:30N 25°47' W 080°11'0 0.0
2018-Jun-24 16:00N 25°47' W 080°11'0 0.0
2018-Jun-24 15:30N 25°47' W 080°11'0 0.0
2018-Jun-24 15:00N 25°47' W 080°11'0 0.0
2018-Jun-24 14:30N 25°47' W 080°11'0 0.0
2018-Jun-24 14:00N 25°47' W 080°11'0 0.0
2018-Jun-24 13:30N 25°47' W 080°11'0 0.0
2018-Jun-24 13:00N 25°47' W 080°11'0 0.0
2018-Jun-24 12:30N 25°47' W 080°11'0 0.0
2018-Jun-24 11:57N 25°47' W 080°11'0 0.0
2018-Jun-24 11:30N 25°47' W 080°11'0 0.0
2018-Jun-24 11:00N 25°47' W 080°11'0 0.0
2018-Jun-24 10:27N 25°47' W 080°11'0 0.4
2018-Jun-24 10:00N 25°47' W 080°11'4 7.8
2018-Jun-24 09:30N 25°45' W 080°07'510.0
2018-Jun-24 09:00N 25°47' W 080°01'611.3
2018-Jun-24 08:30N 25°50' W 079°56'510.8
2018-Jun-24 08:00N 25°53' W 079°51'610.4
2018-Jun-24 07:27N 25°56' W 079°46'510.4
2018-Jun-24 06:56N 25°59' W 079°41'4 8.5
2018-Jun-24 06:30N 26°01' W 079°37'25 1.0
2018-Jun-23 04:16N 26°15' W 079°14'312.2
2018-Jun-23 04:00N 26°13' W 079°17'612.3
2018-Jun-23 03:30N 26°10' W 079°22'612.6
2018-Jun-23 03:00N 26°06' W 079°28'612.6
2018-Jun-23 02:30N 26°03' W 079°34'612.7
2018-Jun-23 02:00N 25°59' W 079°40'612.8
2018-Jun-23 01:30N 25°56' W 079°46'713.2
2018-Jun-23 01:00N 25°53' W 079°52'612.9
2018-Jun-23 00:30N 25°49' W 079°58'612.2
2018-Jun-23 00:00N 25°46' W 080°04'5 9.7
2018-Jun-22 23:30N 25°46' W 080°09'1 1.7
2018-Jun-22 22:51N 25°47' W 080°11'0 0.0
2018-Jun-22 22:21N 25°47' W 080°11'0 0.0
2018-Jun-22 21:57N 25°47' W 080°11'0 0.0
2018-Jun-22 21:27N 25°47' W 080°11'0 0.0
2018-Jun-22 20:57N 25°47' W 080°11'0 0.0
2018-Jun-22 20:30N 25°47' W 080°11'0 0.0
2018-Jun-22 19:57N 25°47' W 080°11'0 0.0
2018-Jun-22 19:27N 25°47' W 080°11'0 0.0
2018-Jun-22 19:00N 25°47' W 080°11'0 0.0
2018-Jun-22 18:30N 25°47' W 080°11'0 0.0
2018-Jun-22 17:57N 25°47' W 080°11'0 0.0
2018-Jun-22 17:30N 25°47' W 080°11'0 0.0
2018-Jun-22 17:00N 25°47' W 080°11'0 0.0
2018-Jun-22 16:30N 25°47' W 080°11'0 0.0
2018-Jun-22 16:00N 25°47' W 080°11'0 0.0
2018-Jun-22 15:27N 25°47' W 080°11'0 0.0
2018-Jun-22 15:00N 25°47' W 080°11'0 0.0
2018-Jun-22 14:30N 25°47' W 080°11'0 0.0
2018-Jun-22 14:00N 25°47' W 080°11'0 0.0
2018-Jun-22 13:30N 25°47' W 080°11'0 0.0
2018-Jun-22 13:00N 25°47' W 080°11'0 0.0
2018-Jun-22 12:30N 25°47' W 080°11'0 0.0
2018-Jun-22 12:00N 25°47' W 080°11'0 0.0
2018-Jun-22 11:30N 25°47' W 080°11'0 0.0
2018-Jun-22 11:00N 25°47' W 080°11'0 0.0
2018-Jun-22 10:30N 25°47' W 080°11'0 0.0
2018-Jun-22 10:00N 25°47' W 080°11'0 0.0
2018-Jun-22 09:24N 25°47' W 080°11'0 0.0
2018-Jun-22 08:54N 25°47' W 080°11'0 0.0
2018-Jun-22 08:30N 25°47' W 080°11'0 0.0
2018-Jun-22 08:00N 25°47' W 080°11'0 0.0
2018-Jun-22 07:24N 25°47' W 080°11'0 0.0
2018-Jun-22 06:54N 25°47' W 080°11'0 0.0
2018-Jun-22 06:24N 25°47' W 080°11'0 0.0
2018-Jun-22 06:00N 25°47' W 080°11'0 0.0
2018-Jun-22 05:30N 25°47' W 080°11'0 0.0
2018-Jun-22 04:57N 25°47' W 080°11'0 0.0
2018-Jun-22 04:27N 25°47' W 080°11'0 0.0
2018-Jun-22 04:00N 25°47' W 080°11'0 0.0
2018-Jun-22 03:30N 25°47' W 080°11'0 0.0
2018-Jun-22 03:00N 25°47' W 080°11'0 0.0
2018-Jun-22 02:27N 25°47' W 080°11'0 0.0
2018-Jun-22 02:00N 25°47' W 080°11'0 0.0
2018-Jun-22 01:30N 25°47' W 080°11'0 0.0
2018-Jun-22 01:00N 25°47' W 080°11'0 0.0
2018-Jun-22 00:30N 25°47' W 080°11'0 0.0
2018-Jun-22 00:00N 25°47' W 080°11'0 0.0
2018-Jun-21 23:30N 25°47' W 080°11'0 0.0
2018-Jun-21 23:00N 25°47' W 080°11'0 0.0
2018-Jun-21 22:30N 25°47' W 080°11'0 0.0
2018-Jun-21 22:00N 25°47' W 080°11'0 0.0
2018-Jun-21 21:30N 25°47' W 080°11'0 0.0
2018-Jun-21 21:00N 25°47' W 080°11'0 0.0
2018-Jun-21 20:30N 25°47' W 080°11'0 0.0
2018-Jun-21 20:00N 25°47' W 080°11'0 0.0
2018-Jun-21 19:30N 25°47' W 080°11'0 0.0
2018-Jun-21 19:00N 25°47' W 080°11'0 0.0
2018-Jun-21 18:24N 25°47' W 080°11'0 0.0
2018-Jun-21 17:54N 25°47' W 080°11'0 0.0
2018-Jun-21 17:27N 25°47' W 080°11'0 0.0
2018-Jun-21 16:54N 25°47' W 080°11'0 0.0
2018-Jun-21 16:30N 25°47' W 080°11'0 0.0
2018-Jun-21 16:00N 25°47' W 080°11'0 0.0
2018-Jun-21 15:27N 25°47' W 080°11'0 0.0
2018-Jun-21 15:00N 25°47' W 080°11'0 0.0
2018-Jun-21 14:27N 25°47' W 080°11'0 0.0
2018-Jun-21 13:57N 25°47' W 080°11'0 0.0
2018-Jun-21 13:30N 25°47' W 080°11'0 0.0
2018-Jun-21 13:00N 25°47' W 080°11'0 0.0
2018-Jun-21 12:30N 25°47' W 080°11'0 0.0
2018-Jun-21 12:00N 25°47' W 080°11'0 0.0
2018-Jun-21 11:30N 25°47' W 080°11'0 0.7
2018-Jun-21 11:00N 25°47' W 080°11'3 6.1
2018-Jun-21 10:30N 25°46' W 080°08'611.7
2018-Jun-21 10:00N 25°47' W 080°02'713.6
2018-Jun-21 09:30N 25°51' W 079°55'713.7
2018-Jun-21 08:58N 25°55' W 079°48'713.7
2018-Jun-21 08:28N 25°59' W 079°42'713.9
2018-Jun-21 07:57N 26°03' W 079°35'613.8
2018-Jun-21 07:30N 26°06' W 079°29'  
Track history (hours):
 
Tides and Currents Weather Stations Pressure Air Temp Water Temp Dewpoint Dewpoint Depression Visibility Wind Speed Wind Dir Waves Ship Positions

Mariner Of The Seas

Operator: Royal Caribbean Cruises Ltd

Last reported at 2018-Jun-25 00:30 UTC. Time now 2018-Jun-25 00:40 UTC.
Position N 25°47' W 080°11'.

Type: Passenger vessel. MMSI: 311493000.

Date/timePositionNaut miles runAvg speedWind from/ knotsBaromVisibWave heightAir tempDewpointWater temp
2018-Jun-25 00:30N 25°47' W 080°11'0 0.0
2018-Jun-25 00:00N 25°47' W 080°11'0 0.0
2018-Jun-24 23:27N 25°47' W 080°11'0 0.0
2018-Jun-24 23:00N 25°47' W 080°11'0 0.0
2018-Jun-24 22:27N 25°47' W 080°11'0 0.0
2018-Jun-24 21:54N 25°47' W 080°11'0 0.0
2018-Jun-24 21:30N 25°47' W 080°11'0 0.0
2018-Jun-24 20:57N 25°47' W 080°11'0 0.0
2018-Jun-24 20:30N 25°47' W 080°11'0 0.0
2018-Jun-24 20:00N 25°47' W 080°11'0 0.0
2018-Jun-24 19:30N 25°47' W 080°11'0 0.0
2018-Jun-24 18:57N 25°47' W 080°11'0 0.0
2018-Jun-24 18:27N 25°47' W 080°11'0 0.0
2018-Jun-24 18:00N 25°47' W 080°11'0 0.0
2018-Jun-24 17:30N 25°47' W 080°11'0 0.0
2018-Jun-24 17:00N 25°47' W 080°11'0 0.0
2018-Jun-24 16:30N 25°47' W 080°11'0 0.0
2018-Jun-24 16:00N 25°47' W 080°11'0 0.0
2018-Jun-24 15:30N 25°47' W 080°11'0 0.0
2018-Jun-24 15:00N 25°47' W 080°11'0 0.0
2018-Jun-24 14:30N 25°47' W 080°11'0 0.0
2018-Jun-24 14:00N 25°47' W 080°11'0 0.0
2018-Jun-24 13:30N 25°47' W 080°11'0 0.0
2018-Jun-24 13:00N 25°47' W 080°11'0 0.0
2018-Jun-24 12:30N 25°47' W 080°11'0 0.0
2018-Jun-24 11:57N 25°47' W 080°11'0 0.0
2018-Jun-24 11:30N 25°47' W 080°11'0 0.0
2018-Jun-24 11:00N 25°47' W 080°11'0 0.0
2018-Jun-24 10:27N 25°47' W 080°11'0 0.4
2018-Jun-24 10:00N 25°47' W 080°11'4 7.8
2018-Jun-24 09:30N 25°45' W 080°07'510.0
2018-Jun-24 09:00N 25°47' W 080°01'611.3
2018-Jun-24 08:30N 25°50' W 079°56'510.8
2018-Jun-24 08:00N 25°53' W 079°51'610.4
2018-Jun-24 07:27N 25°56' W 079°46'510.4
2018-Jun-24 06:56N 25°59' W 079°41'4 8.5
2018-Jun-24 06:30N 26°01' W 079°37'25 1.0
2018-Jun-23 04:16N 26°15' W 079°14'312.2
2018-Jun-23 04:00N 26°13' W 079°17'612.3
2018-Jun-23 03:30N 26°10' W 079°22'612.6
2018-Jun-23 03:00N 26°06' W 079°28'612.6
2018-Jun-23 02:30N 26°03' W 079°34'612.7
2018-Jun-23 02:00N 25°59' W 079°40'612.8
2018-Jun-23 01:30N 25°56' W 079°46'713.2
2018-Jun-23 01:00N 25°53' W 079°52'612.9
2018-Jun-23 00:30N 25°49' W 079°58'612.2
2018-Jun-23 00:00N 25°46' W 080°04'5 9.7
2018-Jun-22 23:30N 25°46' W 080°09'1 1.7
2018-Jun-22 22:51N 25°47' W 080°11'0 0.0
2018-Jun-22 22:21N 25°47' W 080°11'0 0.0
2018-Jun-22 21:57N 25°47' W 080°11'0 0.0
2018-Jun-22 21:27N 25°47' W 080°11'0 0.0
2018-Jun-22 20:57N 25°47' W 080°11'0 0.0
2018-Jun-22 20:30N 25°47' W 080°11'0 0.0
2018-Jun-22 19:57N 25°47' W 080°11'0 0.0
2018-Jun-22 19:27N 25°47' W 080°11'0 0.0
2018-Jun-22 19:00N 25°47' W 080°11'0 0.0
2018-Jun-22 18:30N 25°47' W 080°11'0 0.0
2018-Jun-22 17:57N 25°47' W 080°11'0 0.0
2018-Jun-22 17:30N 25°47' W 080°11'0 0.0
2018-Jun-22 17:00N 25°47' W 080°11'0 0.0
2018-Jun-22 16:30N 25°47' W 080°11'0 0.0
2018-Jun-22 16:00N 25°47' W 080°11'0 0.0
2018-Jun-22 15:27N 25°47' W 080°11'0 0.0
2018-Jun-22 15:00N 25°47' W 080°11'0 0.0
2018-Jun-22 14:30N 25°47' W 080°11'0 0.0
2018-Jun-22 14:00N 25°47' W 080°11'0 0.0
2018-Jun-22 13:30N 25°47' W 080°11'0 0.0
2018-Jun-22 13:00N 25°47' W 080°11'0 0.0
2018-Jun-22 12:30N 25°47' W 080°11'0 0.0
2018-Jun-22 12:00N 25°47' W 080°11'0 0.0
2018-Jun-22 11:30N 25°47' W 080°11'0 0.0
2018-Jun-22 11:00N 25°47' W 080°11'0 0.0
2018-Jun-22 10:30N 25°47' W 080°11'0 0.0
2018-Jun-22 10:00N 25°47' W 080°11'0 0.0
2018-Jun-22 09:24N 25°47' W 080°11'0 0.0
2018-Jun-22 08:54N 25°47' W 080°11'0 0.0
2018-Jun-22 08:30N 25°47' W 080°11'0 0.0
2018-Jun-22 08:00N 25°47' W 080°11'0 0.0
2018-Jun-22 07:24N 25°47' W 080°11'0 0.0
2018-Jun-22 06:54N 25°47' W 080°11'0 0.0
2018-Jun-22 06:24N 25°47' W 080°11'0 0.0
2018-Jun-22 06:00N 25°47' W 080°11'0 0.0
2018-Jun-22 05:30N 25°47' W 080°11'0 0.0
2018-Jun-22 04:57N 25°47' W 080°11'0 0.0
2018-Jun-22 04:27N 25°47' W 080°11'0 0.0
2018-Jun-22 04:00N 25°47' W 080°11'0 0.0
2018-Jun-22 03:30N 25°47' W 080°11'0 0.0
2018-Jun-22 03:00N 25°47' W 080°11'0 0.0
2018-Jun-22 02:27N 25°47' W 080°11'0 0.0
2018-Jun-22 02:00N 25°47' W 080°11'0 0.0
2018-Jun-22 01:30N 25°47' W 080°11'0 0.0
2018-Jun-22 01:00N 25°47' W 080°11'0 0.0
2018-Jun-22 00:30N 25°47' W 080°11'0 0.0
2018-Jun-22 00:00N 25°47' W 080°11'0 0.0
2018-Jun-21 23:30N 25°47' W 080°11'0 0.0
2018-Jun-21 23:00N 25°47' W 080°11'0 0.0
2018-Jun-21 22:30N 25°47' W 080°11'0 0.0
2018-Jun-21 22:00N 25°47' W 080°11'0 0.0
2018-Jun-21 21:30N 25°47' W 080°11'0 0.0
2018-Jun-21 21:00N 25°47' W 080°11'0 0.0
2018-Jun-21 20:30N 25°47' W 080°11'0 0.0
2018-Jun-21 20:00N 25°47' W 080°11'0 0.0
2018-Jun-21 19:30N 25°47' W 080°11'0 0.0
2018-Jun-21 19:00N 25°47' W 080°11'0 0.0
2018-Jun-21 18:24N 25°47' W 080°11'0 0.0
2018-Jun-21 17:54N 25°47' W 080°11'0 0.0
2018-Jun-21 17:27N 25°47' W 080°11'0 0.0
2018-Jun-21 16:54N 25°47' W 080°11'0 0.0
2018-Jun-21 16:30N 25°47' W 080°11'0 0.0
2018-Jun-21 16:00N 25°47' W 080°11'0 0.0
2018-Jun-21 15:27N 25°47' W 080°11'0 0.0
2018-Jun-21 15:00N 25°47' W 080°11'0 0.0
2018-Jun-21 14:27N 25°47' W 080°11'0 0.0
2018-Jun-21 13:57N 25°47' W 080°11'0 0.0
2018-Jun-21 13:30N 25°47' W 080°11'0 0.0
2018-Jun-21 13:00N 25°47' W 080°11'0 0.0
2018-Jun-21 12:30N 25°47' W 080°11'0 0.0
2018-Jun-21 12:00N 25°47' W 080°11'0 0.0
2018-Jun-21 11:30N 25°47' W 080°11'0 0.7
2018-Jun-21 11:00N 25°47' W 080°11'3 6.1
2018-Jun-21 10:30N 25°46' W 080°08'611.7
2018-Jun-21 10:00N 25°47' W 080°02'713.6
2018-Jun-21 09:30N 25°51' W 079°55'713.7
2018-Jun-21 08:58N 25°55' W 079°48'713.7
2018-Jun-21 08:28N 25°59' W 079°42'713.9
2018-Jun-21 07:57N 26°03' W 079°35'613.8
2018-Jun-21 07:30N 26°06' W 079°29'  

Dump ship's entire track history